sensor_id;sensor_type;location;lat;lon;timestamp;pressure;altitude;pressure_sealevel;temperature;humidity
20620;BME280;10469;42.720;23.252;2023-11-19T00:02:19;94861.88;;;3.26;100.00
20620;BME280;10469;42.720;23.252;2023-11-19T00:04:44;94869.78;;;3.20;100.00
20620;BME280;10469;42.720;23.252;2023-11-19T00:07:10;94884.78;;;3.34;100.00
20620;BME280;10469;42.720;23.252;2023-11-19T00:09:38;94872.13;;;3.08;100.00
20620;BME280;10469;42.720;23.252;2023-11-19T00:12:05;94869.59;;;3.21;100.00
20620;BME280;10469;42.720;23.252;2023-11-19T00:14:33;94880.88;;;3.30;100.00
20620;BME280;10469;42.720;23.252;2023-11-19T00:16:58;94872.38;;;3.13;100.00
20620;BME280;10469;42.720;23.252;2023-11-19T00:19:24;94868.94;;;3.19;100.00
20620;BME280;10469;42.720;23.252;2023-11-19T00:21:50;94868.44;;;3.31;100.00
20620;BME280;10469;42.720;23.252;2023-11-19T00:24:16;94874.53;;;3.24;100.00
20620;BME280;10469;42.720;23.252;2023-11-19T00:26:43;94865.09;;;3.22;100.00
20620;BME280;10469;42.720;23.252;2023-11-19T00:29:08;94859.19;;;3.20;100.00
20620;BME280;10469;42.720;23.252;2023-11-19T00:31:34;94881.13;;;3.14;100.00
20620;BME280;10469;42.720;23.252;2023-11-19T00:34:00;94884.59;;;3.14;100.00
20620;BME280;10469;42.720;23.252;2023-11-19T00:36:27;94886.13;;;3.02;100.00
20620;BME280;10469;42.720;23.252;2023-11-19T00:38:52;94881.34;;;3.12;100.00
20620;BME280;10469;42.720;23.252;2023-11-19T00:41:18;94887.94;;;3.23;100.00
20620;BME280;10469;42.720;23.252;2023-11-19T00:43:44;94891.16;;;3.18;100.00
20620;BME280;10469;42.720;23.252;2023-11-19T00:46:10;94869.47;;;3.08;100.00
20620;BME280;10469;42.720;23.252;2023-11-19T00:48:39;94873.88;;;3.01;100.00
20620;BME280;10469;42.720;23.252;2023-11-19T00:51:05;94885.03;;;3.18;100.00
20620;BME280;10469;42.720;23.252;2023-11-19T00:53:31;94885.88;;;3.18;100.00
20620;BME280;10469;42.720;23.252;2023-11-19T00:56:00;94888.84;;;3.09;100.00
20620;BME280;10469;42.720;23.252;2023-11-19T00:58:26;94891.81;;;2.99;100.00
20620;BME280;10469;42.720;23.252;2023-11-19T01:00:54;94887.44;;;3.13;100.00
20620;BME280;10469;42.720;23.252;2023-11-19T01:03:20;94892.09;;;3.11;100.00
20620;BME280;10469;42.720;23.252;2023-11-19T01:05:46;94896.78;;;3.09;100.00
20620;BME280;10469;42.720;23.252;2023-11-19T01:08:12;94855.34;;;3.01;100.00
20620;BME280;10469;42.720;23.252;2023-11-19T01:10:38;94887.13;;;3.22;100.00
20620;BME280;10469;42.720;23.252;2023-11-19T01:13:03;94884.31;;;3.24;100.00
20620;BME280;10469;42.720;23.252;2023-11-19T01:15:31;94905.19;;;3.12;100.00
20620;BME280;10469;42.720;23.252;2023-11-19T01:17:57;94893.56;;;3.13;100.00
20620;BME280;10469;42.720;23.252;2023-11-19T01:20:23;94897.22;;;3.12;100.00
20620;BME280;10469;42.720;23.252;2023-11-19T01:22:50;94910.34;;;3.20;100.00
20620;BME280;10469;42.720;23.252;2023-11-19T01:25:16;94893.00;;;2.96;100.00
20620;BME280;10469;42.720;23.252;2023-11-19T01:27:42;94897.59;;;3.09;100.00
20620;BME280;10469;42.720;23.252;2023-11-19T01:30:08;94909.09;;;3.16;100.00
20620;BME280;10469;42.720;23.252;2023-11-19T01:32:40;94909.09;;;3.16;100.00
20620;BME280;10469;42.720;23.252;2023-11-19T01:35:06;94915.91;;;3.25;100.00
20620;BME280;10469;42.720;23.252;2023-11-19T01:37:33;94919.28;;;3.19;100.00
20620;BME280;10469;42.720;23.252;2023-11-19T01:40:00;94923.34;;;3.15;100.00
20620;BME280;10469;42.720;23.252;2023-11-19T01:42:26;94913.69;;;3.08;100.00
20620;BME280;10469;42.720;23.252;2023-11-19T01:44:59;94929.41;;;3.09;100.00
20620;BME280;10469;42.720;23.252;2023-11-19T01:47:25;94930.53;;;3.00;100.00
20620;BME280;10469;42.720;23.252;2023-11-19T01:49:52;94933.97;;;3.15;100.00
20620;BME280;10469;42.720;23.252;2023-11-19T01:52:18;94932.28;;;3.14;100.00
20620;BME280;10469;42.720;23.252;2023-11-19T01:54:45;94912.06;;;3.07;100.00
20620;BME280;10469;42.720;23.252;2023-11-19T01:57:11;94931.56;;;3.20;100.00
20620;BME280;10469;42.720;23.252;2023-11-19T01:59:37;94933.38;;;3.20;100.00
20620;BME280;10469;42.720;23.252;2023-11-19T02:02:05;94910.97;;;3.01;100.00
20620;BME280;10469;42.720;23.252;2023-11-19T02:04:31;94934.00;;;3.22;100.00
20620;BME280;10469;42.720;23.252;2023-11-19T02:06:58;94922.34;;;3.16;100.00
20620;BME280;10469;42.720;23.252;2023-11-19T02:09:24;94922.09;;;3.11;100.00
20620;BME280;10469;42.720;23.252;2023-11-19T02:11:50;94915.53;;;3.07;100.00
20620;BME280;10469;42.720;23.252;2023-11-19T02:14:17;94908.31;;;3.01;100.00
20620;BME280;10469;42.720;23.252;2023-11-19T02:16:43;94915.81;;;2.97;100.00
20620;BME280;10469;42.720;23.252;2023-11-19T02:19:09;94906.75;;;2.85;100.00
20620;BME280;10469;42.720;23.252;2023-11-19T02:21:37;94904.59;;;2.74;100.00
20620;BME280;10469;42.720;23.252;2023-11-19T02:24:06;94912.28;;;2.69;100.00
20620;BME280;10469;42.720;23.252;2023-11-19T02:26:39;94921.25;;;2.68;100.00
20620;BME280;10469;42.720;23.252;2023-11-19T02:29:09;94894.06;;;2.44;100.00
20620;BME280;10469;42.720;23.252;2023-11-19T02:31:35;94890.25;;;2.47;100.00
20620;BME280;10469;42.720;23.252;2023-11-19T02:34:01;94873.72;;;2.45;100.00
20620;BME280;10469;42.720;23.252;2023-11-19T02:36:28;94885.69;;;2.41;100.00
20620;BME280;10469;42.720;23.252;2023-11-19T02:38:53;94885.53;;;2.28;100.00
20620;BME280;10469;42.720;23.252;2023-11-19T02:41:20;94877.13;;;2.24;100.00
20620;BME280;10469;42.720;23.252;2023-11-19T02:43:51;94891.28;;;2.31;100.00
20620;BME280;10469;42.720;23.252;2023-11-19T02:46:16;94895.09;;;2.29;100.00
20620;BME280;10469;42.720;23.252;2023-11-19T02:48:43;94910.25;;;2.35;100.00
20620;BME280;10469;42.720;23.252;2023-11-19T02:51:10;94904.06;;;2.28;100.00
20620;BME280;10469;42.720;23.252;2023-11-19T02:53:36;94920.19;;;2.33;100.00
20620;BME280;10469;42.720;23.252;2023-11-19T02:56:03;94914.16;;;2.24;100.00
20620;BME280;10469;42.720;23.252;2023-11-19T02:58:43;94893.19;;;2.22;100.00
20620;BME280;10469;42.720;23.252;2023-11-19T03:01:12;94902.78;;;2.23;100.00
20620;BME280;10469;42.720;23.252;2023-11-19T03:03:50;94907.44;;;2.21;100.00
20620;BME280;10469;42.720;23.252;2023-11-19T03:06:22;94899.56;;;2.28;100.00
20620;BME280;10469;42.720;23.252;2023-11-19T03:08:47;94902.72;;;2.17;100.00
20620;BME280;10469;42.720;23.252;2023-11-19T03:11:13;94925.22;;;2.28;100.00
20620;BME280;10469;42.720;23.252;2023-11-19T03:13:39;94924.50;;;2.34;100.00
20620;BME280;10469;42.720;23.252;2023-11-19T03:16:05;94920.19;;;2.33;100.00
20620;BME280;10469;42.720;23.252;2023-11-19T03:18:31;94930.13;;;2.45;100.00
20620;BME280;10469;42.720;23.252;2023-11-19T03:20:57;94941.44;;;2.39;100.00
20620;BME280;10469;42.720;23.252;2023-11-19T03:23:24;94935.41;;;2.45;100.00
20620;BME280;10469;42.720;23.252;2023-11-19T03:25:54;94926.66;;;2.45;100.00
20620;BME280;10469;42.720;23.252;2023-11-19T03:28:20;94936.50;;;2.51;100.00
20620;BME280;10469;42.720;23.252;2023-11-19T03:30:45;94942.78;;;2.50;100.00
20620;BME280;10469;42.720;23.252;2023-11-19T03:33:11;94946.09;;;2.52;100.00
20620;BME280;10469;42.720;23.252;2023-11-19T03:35:42;94946.44;;;2.49;100.00
20620;BME280;10469;42.720;23.252;2023-11-19T03:38:09;94939.53;;;2.48;100.00
20620;BME280;10469;42.720;23.252;2023-11-19T03:40:35;94952.66;;;2.56;100.00
20620;BME280;10469;42.720;23.252;2023-11-19T03:43:00;94953.53;;;2.63;100.00
20620;BME280;10469;42.720;23.252;2023-11-19T03:45:26;94960.09;;;2.67;100.00
20620;BME280;10469;42.720;23.252;2023-11-19T03:47:52;94976.34;;;2.79;100.00
20620;BME280;10469;42.720;23.252;2023-11-19T03:50:18;94981.72;;;2.86;100.00
20620;BME280;10469;42.720;23.252;2023-11-19T03:52:46;94974.78;;;2.85;100.00
20620;BME280;10469;42.720;23.252;2023-11-19T03:55:11;94982.81;;;2.91;100.00
20620;BME280;10469;42.720;23.252;2023-11-19T03:57:39;94978.56;;;2.97;100.00
20620;BME280;10469;42.720;23.252;2023-11-19T04:00:05;94979.34;;;2.91;100.00
20620;BME280;10469;42.720;23.252;2023-11-19T04:02:35;94973.59;;;2.87;100.00
20620;BME280;10469;42.720;23.252;2023-11-19T04:05:00;94971.66;;;2.96;100.00
20620;BME280;10469;42.720;23.252;2023-11-19T04:07:26;94967.94;;;2.90;100.00
20620;BME280;10469;42.720;23.252;2023-11-19T04:09:51;94952.72;;;2.78;100.00
20620;BME280;10469;42.720;23.252;2023-11-19T04:12:17;94981.53;;;2.87;100.00
20620;BME280;10469;42.720;23.252;2023-11-19T04:14:42;94991.94;;;2.89;100.00
20620;BME280;10469;42.720;23.252;2023-11-19T04:17:09;94983.81;;;2.90;100.00
20620;BME280;10469;42.720;23.252;2023-11-19T04:19:34;94977.31;;;2.93;100.00
20620;BME280;10469;42.720;23.252;2023-11-19T04:22:00;94971.44;;;2.97;100.00
20620;BME280;10469;42.720;23.252;2023-11-19T04:24:25;94972.41;;;2.90;100.00
20620;BME280;10469;42.720;23.252;2023-11-19T04:26:51;94978.78;;;2.81;100.00
20620;BME280;10469;42.720;23.252;2023-11-19T04:29:19;94976.22;;;2.87;100.00
20620;BME280;10469;42.720;23.252;2023-11-19T04:31:44;94978.38;;;2.77;100.00
20620;BME280;10469;42.720;23.252;2023-11-19T04:34:11;94957.47;;;2.67;100.00
20620;BME280;10469;42.720;23.252;2023-11-19T04:36:37;94995.06;;;2.78;100.00
20620;BME280;10469;42.720;23.252;2023-11-19T04:39:03;94984.53;;;2.84;100.00
20620;BME280;10469;42.720;23.252;2023-11-19T04:41:50;94986.13;;;2.79;100.00
20620;BME280;10469;42.720;23.252;2023-11-19T04:44:18;94994.25;;;2.77;100.00
20620;BME280;10469;42.720;23.252;2023-11-19T04:46:46;94980.38;;;2.75;100.00
20620;BME280;10469;42.720;23.252;2023-11-19T04:49:13;94958.22;;;2.61;100.00
20620;BME280;10469;42.720;23.252;2023-11-19T04:51:43;94985.75;;;2.82;100.00
20620;BME280;10469;42.720;23.252;2023-11-19T04:54:09;94974.81;;;2.70;100.00
20620;BME280;10469;42.720;23.252;2023-11-19T04:56:36;94948.00;;;2.58;100.00
20620;BME280;10469;42.720;23.252;2023-11-19T04:59:03;94982.56;;;2.71;100.00
20620;BME280;10469;42.720;23.252;2023-11-19T05:01:29;94980.31;;;2.68;100.00
20620;BME280;10469;42.720;23.252;2023-11-19T05:03:56;95011.22;;;2.83;100.00
20620;BME280;10469;42.720;23.252;2023-11-19T05:06:29;95017.72;;;2.65;100.00
20620;BME280;10469;42.720;23.252;2023-11-19T05:08:59;95024.41;;;2.61;100.00
20620;BME280;10469;42.720;23.252;2023-11-19T05:11:30;95024.81;;;2.80;100.00
20620;BME280;10469;42.720;23.252;2023-11-19T05:13:56;95010.06;;;2.70;100.00
20620;BME280;10469;42.720;23.252;2023-11-19T05:16:23;95010.56;;;2.81;100.00
20620;BME280;10469;42.720;23.252;2023-11-19T05:18:50;95015.97;;;2.87;100.00
20620;BME280;10469;42.720;23.252;2023-11-19T05:21:17;95025.28;;;2.83;100.00
20620;BME280;10469;42.720;23.252;2023-11-19T05:23:43;95019.53;;;2.80;100.00
20620;BME280;10469;42.720;23.252;2023-11-19T05:26:09;95011.03;;;2.84;100.00
20620;BME280;10469;42.720;23.252;2023-11-19T05:28:38;95014.13;;;2.88;100.00
20620;BME280;10469;42.720;23.252;2023-11-19T05:31:05;95013.13;;;2.89;100.00
20620;BME280;10469;42.720;23.252;2023-11-19T05:33:31;95024.72;;;2.88;100.00
20620;BME280;10469;42.720;23.252;2023-11-19T05:35:57;95016.78;;;2.88;100.00
20620;BME280;10469;42.720;23.252;2023-11-19T05:38:22;95024.81;;;2.94;100.00
20620;BME280;10469;42.720;23.252;2023-11-19T05:40:48;95020.69;;;2.92;100.00
20620;BME280;10469;42.720;23.252;2023-11-19T05:43:14;95013.97;;;2.74;100.00
20620;BME280;10469;42.720;23.252;2023-11-19T05:45:42;95026.75;;;2.86;100.00
20620;BME280;10469;42.720;23.252;2023-11-19T05:48:09;95024.38;;;2.76;100.00
20620;BME280;10469;42.720;23.252;2023-11-19T05:50:35;95021.78;;;2.97;100.00
20620;BME280;10469;42.720;23.252;2023-11-19T05:53:00;95035.03;;;2.97;100.00
20620;BME280;10469;42.720;23.252;2023-11-19T05:55:28;95037.97;;;2.88;100.00
20620;BME280;10469;42.720;23.252;2023-11-19T05:57:54;95034.31;;;2.89;100.00
20620;BME280;10469;42.720;23.252;2023-11-19T06:00:19;95031.22;;;2.70;100.00
20620;BME280;10469;42.720;23.252;2023-11-19T06:02:45;95040.34;;;2.83;100.00
20620;BME280;10469;42.720;23.252;2023-11-19T06:05:11;95026.41;;;2.74;100.00
20620;BME280;10469;42.720;23.252;2023-11-19T06:07:37;95051.50;;;2.78;100.00
20620;BME280;10469;42.720;23.252;2023-11-19T06:10:05;95064.56;;;3.31;100.00
20620;BME280;10469;42.720;23.252;2023-11-19T06:12:33;95056.56;;;3.24;100.00
20620;BME280;10469;42.720;23.252;2023-11-19T06:15:00;95054.41;;;2.98;100.00
20620;BME280;10469;42.720;23.252;2023-11-19T06:17:26;95017.34;;;2.98;100.00
20620;BME280;10469;42.720;23.252;2023-11-19T06:19:55;95048.59;;;3.24;100.00
20620;BME280;10469;42.720;23.252;2023-11-19T06:22:21;95052.47;;;3.43;100.00
20620;BME280;10469;42.720;23.252;2023-11-19T06:24:46;95046.47;;;3.19;100.00
20620;BME280;10469;42.720;23.252;2023-11-19T06:27:13;95062.66;;;3.24;100.00
20620;BME280;10469;42.720;23.252;2023-11-19T06:29:38;95066.16;;;3.10;100.00
20620;BME280;10469;42.720;23.252;2023-11-19T06:32:06;95065.88;;;3.05;100.00
20620;BME280;10469;42.720;23.252;2023-11-19T06:34:35;95047.44;;;2.97;100.00
20620;BME280;10469;42.720;23.252;2023-11-19T06:37:07;95056.25;;;2.83;100.00
20620;BME280;10469;42.720;23.252;2023-11-19T06:39:34;95088.72;;;3.06;100.00
20620;BME280;10469;42.720;23.252;2023-11-19T06:42:01;95063.75;;;2.64;100.00
20620;BME280;10469;42.720;23.252;2023-11-19T06:44:29;95063.38;;;2.82;100.00
20620;BME280;10469;42.720;23.252;2023-11-19T06:46:55;95067.09;;;2.88;100.00
20620;BME280;10469;42.720;23.252;2023-11-19T06:49:21;95059.56;;;2.55;100.00
20620;BME280;10469;42.720;23.252;2023-11-19T06:51:47;95042.84;;;2.69;100.00
20620;BME280;10469;42.720;23.252;2023-11-19T06:54:13;95060.81;;;2.74;100.00
20620;BME280;10469;42.720;23.252;2023-11-19T06:56:38;95058.63;;;2.78;100.00
20620;BME280;10469;42.720;23.252;2023-11-19T06:59:04;95064.38;;;2.81;100.00
20620;BME280;10469;42.720;23.252;2023-11-19T07:01:35;95066.03;;;2.82;100.00
20620;BME280;10469;42.720;23.252;2023-11-19T07:04:01;95055.06;;;2.85;100.00
20620;BME280;10469;42.720;23.252;2023-11-19T07:06:33;95052.69;;;2.75;100.00
20620;BME280;10469;42.720;23.252;2023-11-19T07:09:00;95068.31;;;2.70;100.00
20620;BME280;10469;42.720;23.252;2023-11-19T07:11:40;95054.44;;;2.68;100.00
20620;BME280;10469;42.720;23.252;2023-11-19T07:14:08;95054.59;;;2.67;100.00
20620;BME280;10469;42.720;23.252;2023-11-19T07:16:35;95075.41;;;2.85;100.00
20620;BME280;10469;42.720;23.252;2023-11-19T07:19:03;95074.44;;;2.86;100.00
20620;BME280;10469;42.720;23.252;2023-11-19T07:21:28;95068.38;;;2.92;100.00
20620;BME280;10469;42.720;23.252;2023-11-19T07:23:57;95079.44;;;2.81;100.00
20620;BME280;10469;42.720;23.252;2023-11-19T07:26:23;95065.63;;;3.00;100.00
20620;BME280;10469;42.720;23.252;2023-11-19T07:28:50;95061.25;;;2.92;100.00
20620;BME280;10469;42.720;23.252;2023-11-19T07:31:16;95087.09;;;2.75;100.00
20620;BME280;10469;42.720;23.252;2023-11-19T07:33:45;95090.31;;;2.71;100.00
20620;BME280;10469;42.720;23.252;2023-11-19T07:36:11;95094.41;;;2.88;100.00
20620;BME280;10469;42.720;23.252;2023-11-19T07:38:38;95073.88;;;2.90;100.00
20620;BME280;10469;42.720;23.252;2023-11-19T07:41:19;95107.63;;;3.18;100.00
20620;BME280;10469;42.720;23.252;2023-11-19T07:43:45;95095.41;;;3.02;100.00
20620;BME280;10469;42.720;23.252;2023-11-19T07:46:16;95106.91;;;3.24;100.00
20620;BME280;10469;42.720;23.252;2023-11-19T07:48:41;95099.75;;;3.61;100.00
20620;BME280;10469;42.720;23.252;2023-11-19T07:51:08;95094.09;;;3.27;100.00
20620;BME280;10469;42.720;23.252;2023-11-19T07:53:34;95108.59;;;3.32;100.00
20620;BME280;10469;42.720;23.252;2023-11-19T07:56:27;95107.22;;;3.36;100.00
20620;BME280;10469;42.720;23.252;2023-11-19T07:58:52;95102.25;;;2.96;100.00
20620;BME280;10469;42.720;23.252;2023-11-19T08:01:18;95110.19;;;3.26;100.00
20620;BME280;10469;42.720;23.252;2023-11-19T08:03:43;95106.19;;;3.15;100.00
20620;BME280;10469;42.720;23.252;2023-11-19T08:06:09;95119.34;;;3.09;100.00
20620;BME280;10469;42.720;23.252;2023-11-19T08:08:34;95109.91;;;3.06;100.00
20620;BME280;10469;42.720;23.252;2023-11-19T08:11:00;95119.59;;;3.29;100.00
20620;BME280;10469;42.720;23.252;2023-11-19T08:13:26;95125.34;;;3.17;100.00
20620;BME280;10469;42.720;23.252;2023-11-19T08:15:58;95119.41;;;3.30;100.00
20620;BME280;10469;42.720;23.252;2023-11-19T08:18:24;95117.88;;;3.21;100.00
20620;BME280;10469;42.720;23.252;2023-11-19T08:20:49;95124.44;;;3.25;100.00
20620;BME280;10469;42.720;23.252;2023-11-19T08:23:19;95062.72;;;2.80;100.00
20620;BME280;10469;42.720;23.252;2023-11-19T08:25:46;95106.75;;;2.81;100.00
20620;BME280;10469;42.720;23.252;2023-11-19T08:28:25;95124.28;;;2.82;100.00
20620;BME280;10469;42.720;23.252;2023-11-19T08:30:50;95131.56;;;3.24;100.00
20620;BME280;10469;42.720;23.252;2023-11-19T08:33:16;95087.34;;;3.10;100.00
20620;BME280;10469;42.720;23.252;2023-11-19T08:35:44;95143.25;;;3.30;100.00
20620;BME280;10469;42.720;23.252;2023-11-19T08:38:10;95145.97;;;3.37;100.00
20620;BME280;10469;42.720;23.252;2023-11-19T08:40:37;95155.31;;;3.33;100.00
20620;BME280;10469;42.720;23.252;2023-11-19T08:43:04;95160.00;;;3.16;100.00
20620;BME280;10469;42.720;23.252;2023-11-19T08:45:32;95118.03;;;3.19;100.00
20620;BME280;10469;42.720;23.252;2023-11-19T08:48:04;95125.41;;;3.39;100.00
20620;BME280;10469;42.720;23.252;2023-11-19T08:50:30;95133.56;;;3.37;100.00
20620;BME280;10469;42.720;23.252;2023-11-19T08:53:01;95138.25;;;3.57;100.00
20620;BME280;10469;42.720;23.252;2023-11-19T08:55:29;95106.56;;;3.48;100.00
20620;BME280;10469;42.720;23.252;2023-11-19T08:57:55;95080.72;;;3.36;100.00
20620;BME280;10469;42.720;23.252;2023-11-19T09:00:29;95059.53;;;2.85;100.00
20620;BME280;10469;42.720;23.252;2023-11-19T09:02:55;95129.25;;;3.51;100.00
20620;BME280;10469;42.720;23.252;2023-11-19T09:05:26;95109.28;;;3.04;100.00
20620;BME280;10469;42.720;23.252;2023-11-19T09:07:53;95136.16;;;3.01;100.00
20620;BME280;10469;42.720;23.252;2023-11-19T09:10:18;95136.53;;;3.49;100.00
20620;BME280;10469;42.720;23.252;2023-11-19T09:12:45;95134.34;;;3.52;100.00
20620;BME280;10469;42.720;23.252;2023-11-19T09:15:10;95114.59;;;3.55;100.00
20620;BME280;10469;42.720;23.252;2023-11-19T09:17:36;95098.81;;;3.47;100.00
20620;BME280;10469;42.720;23.252;2023-11-19T09:20:07;95064.81;;;3.36;100.00
20620;BME280;10469;42.720;23.252;2023-11-19T09:22:33;95092.19;;;3.58;100.00
20620;BME280;10469;42.720;23.252;2023-11-19T09:24:59;95121.13;;;3.23;100.00
20620;BME280;10469;42.720;23.252;2023-11-19T09:27:25;95129.34;;;3.43;100.00
20620;BME280;10469;42.720;23.252;2023-11-19T09:29:51;95140.97;;;3.27;100.00
20620;BME280;10469;42.720;23.252;2023-11-19T09:32:22;95136.28;;;3.44;100.00
20620;BME280;10469;42.720;23.252;2023-11-19T09:34:49;95127.47;;;3.58;100.00
20620;BME280;10469;42.720;23.252;2023-11-19T09:37:15;95109.81;;;3.29;100.00
20620;BME280;10469;42.720;23.252;2023-11-19T09:39:41;95106.03;;;3.38;100.00
20620;BME280;10469;42.720;23.252;2023-11-19T09:42:10;95087.53;;;3.45;100.00
20620;BME280;10469;42.720;23.252;2023-11-19T09:44:47;95114.72;;;3.47;100.00
20620;BME280;10469;42.720;23.252;2023-11-19T09:47:14;95071.38;;;3.40;100.00
20620;BME280;10469;42.720;23.252;2023-11-19T09:49:40;95056.31;;;3.04;100.00
20620;BME280;10469;42.720;23.252;2023-11-19T09:52:06;95067.88;;;3.54;100.00
20620;BME280;10469;42.720;23.252;2023-11-19T09:54:38;95049.13;;;3.34;100.00
20620;BME280;10469;42.720;23.252;2023-11-19T09:57:04;95064.97;;;3.70;100.00
20620;BME280;10469;42.720;23.252;2023-11-19T09:59:30;95069.00;;;3.66;100.00
20620;BME280;10469;42.720;23.252;2023-11-19T10:01:56;95021.91;;;3.47;100.00
20620;BME280;10469;42.720;23.252;2023-11-19T10:04:23;95073.13;;;3.90;100.00
20620;BME280;10469;42.720;23.252;2023-11-19T10:06:52;95063.09;;;3.86;100.00
20620;BME280;10469;42.720;23.252;2023-11-19T10:09:18;95063.81;;;3.80;100.00
20620;BME280;10469;42.720;23.252;2023-11-19T10:11:44;95056.63;;;3.95;100.00
20620;BME280;10469;42.720;23.252;2023-11-19T10:14:10;95061.06;;;3.88;100.00
20620;BME280;10469;42.720;23.252;2023-11-19T10:16:35;95050.56;;;3.58;100.00
20620;BME280;10469;42.720;23.252;2023-11-19T10:19:01;95086.19;;;3.70;100.00
20620;BME280;10469;42.720;23.252;2023-11-19T10:21:27;95081.78;;;3.77;100.00
20620;BME280;10469;42.720;23.252;2023-11-19T10:23:55;95079.66;;;3.30;100.00
20620;BME280;10469;42.720;23.252;2023-11-19T10:26:26;95075.97;;;3.46;100.00
20620;BME280;10469;42.720;23.252;2023-11-19T10:28:55;95056.19;;;3.70;100.00
20620;BME280;10469;42.720;23.252;2023-11-19T10:31:21;95050.81;;;4.06;100.00
20620;BME280;10469;42.720;23.252;2023-11-19T10:33:53;95055.47;;;4.04;100.00
20620;BME280;10469;42.720;23.252;2023-11-19T10:36:19;95050.28;;;4.17;100.00
20620;BME280;10469;42.720;23.252;2023-11-19T10:38:55;94991.91;;;3.89;100.00
20620;BME280;10469;42.720;23.252;2023-11-19T10:41:32;95005.44;;;4.01;100.00
20620;BME280;10469;42.720;23.252;2023-11-19T10:44:01;95065.38;;;4.17;100.00
20620;BME280;10469;42.720;23.252;2023-11-19T10:46:40;95058.28;;;4.52;100.00
20620;BME280;10469;42.720;23.252;2023-11-19T10:49:07;95046.53;;;4.33;100.00
20620;BME280;10469;42.720;23.252;2023-11-19T10:51:45;95015.22;;;3.72;100.00
20620;BME280;10469;42.720;23.252;2023-11-19T10:57:08;95044.31;;;4.37;100.00
20620;BME280;10469;42.720;23.252;2023-11-19T11:00:19;95051.88;;;4.12;100.00
20620;BME280;10469;42.720;23.252;2023-11-19T11:02:47;95056.53;;;4.66;100.00
20620;BME280;10469;42.720;23.252;2023-11-19T11:05:26;95056.06;;;3.99;100.00
20620;BME280;10469;42.720;23.252;2023-11-19T11:07:52;95039.94;;;4.01;100.00
20620;BME280;10469;42.720;23.252;2023-11-19T11:10:26;95025.88;;;4.28;100.00
20620;BME280;10469;42.720;23.252;2023-11-19T11:12:52;95014.34;;;4.91;100.00
20620;BME280;10469;42.720;23.252;2023-11-19T11:15:27;95002.53;;;4.93;100.00
20620;BME280;10469;42.720;23.252;2023-11-19T11:18:00;95009.50;;;5.08;100.00
20620;BME280;10469;42.720;23.252;2023-11-19T11:20:33;95011.69;;;4.91;100.00
20620;BME280;10469;42.720;23.252;2023-11-19T11:25:57;95009.34;;;4.68;100.00
20620;BME280;10469;42.720;23.252;2023-11-19T11:29:01;95018.19;;;4.75;100.00
20620;BME280;10469;42.720;23.252;2023-11-19T11:31:44;95012.59;;;4.63;100.00
20620;BME280;10469;42.720;23.252;2023-11-19T11:36:57;94996.22;;;6.22;100.00
20620;BME280;10469;42.720;23.252;2023-11-19T11:39:28;94979.53;;;7.18;100.00
20620;BME280;10469;42.720;23.252;2023-11-19T11:45:08;94988.53;;;12.83;100.00
20620;BME280;10469;42.720;23.252;2023-11-19T11:50:20;94979.38;;;9.24;100.00
20620;BME280;10469;42.720;23.252;2023-11-19T11:58:17;94989.72;;;7.27;100.00
20620;BME280;10469;42.720;23.252;2023-11-19T12:00:43;94984.19;;;6.77;100.00
20620;BME280;10469;42.720;23.252;2023-11-19T12:03:10;94991.28;;;7.42;100.00
20620;BME280;10469;42.720;23.252;2023-11-19T12:05:44;94981.63;;;7.02;100.00
20620;BME280;10469;42.720;23.252;2023-11-19T12:08:12;94969.59;;;7.63;100.00
20620;BME280;10469;42.720;23.252;2023-11-19T12:10:49;94967.31;;;7.35;100.00
20620;BME280;10469;42.720;23.252;2023-11-19T12:13:21;94965.84;;;8.46;100.00
20620;BME280;10469;42.720;23.252;2023-11-19T12:18:27;94965.94;;;8.39;100.00
20620;BME280;10469;42.720;23.252;2023-11-19T12:20:55;94966.28;;;7.68;100.00
20620;BME280;10469;42.720;23.252;2023-11-19T12:23:23;94949.03;;;6.42;100.00
20620;BME280;10469;42.720;23.252;2023-11-19T12:25:49;94943.66;;;6.56;100.00
20620;BME280;10469;42.720;23.252;2023-11-19T12:28:15;94949.28;;;6.86;100.00
20620;BME280;10469;42.720;23.252;2023-11-19T12:30:46;94942.56;;;6.76;100.00
20620;BME280;10469;42.720;23.252;2023-11-19T12:33:15;94951.47;;;6.57;100.00
20620;BME280;10469;42.720;23.252;2023-11-19T12:35:42;94952.50;;;6.43;100.00
20620;BME280;10469;42.720;23.252;2023-11-19T12:38:19;94949.47;;;6.33;100.00
20620;BME280;10469;42.720;23.252;2023-11-19T12:40:47;94935.47;;;6.57;100.00
20620;BME280;10469;42.720;23.252;2023-11-19T12:43:22;94936.81;;;5.95;100.00
20620;BME280;10469;42.720;23.252;2023-11-19T12:45:47;94939.69;;;6.13;100.00
20620;BME280;10469;42.720;23.252;2023-11-19T12:48:14;94930.03;;;5.52;100.00
20620;BME280;10469;42.720;23.252;2023-11-19T12:50:57;94934.75;;;5.64;100.00
20620;BME280;10469;42.720;23.252;2023-11-19T12:53:25;94938.03;;;5.99;100.00
20620;BME280;10469;42.720;23.252;2023-11-19T12:55:53;94941.28;;;5.35;100.00
20620;BME280;10469;42.720;23.252;2023-11-19T13:01:06;94926.53;;;5.12;100.00
20620;BME280;10469;42.720;23.252;2023-11-19T13:03:34;94920.81;;;5.28;100.00
20620;BME280;10469;42.720;23.252;2023-11-19T13:06:07;94927.56;;;5.24;100.00
20620;BME280;10469;42.720;23.252;2023-11-19T13:08:51;94922.03;;;5.13;100.00
20620;BME280;10469;42.720;23.252;2023-11-19T13:11:34;94923.47;;;5.15;100.00
20620;BME280;10469;42.720;23.252;2023-11-19T13:14:03;94920.59;;;5.17;100.00
20620;BME280;10469;42.720;23.252;2023-11-19T13:16:30;94906.00;;;4.80;100.00
20620;BME280;10469;42.720;23.252;2023-11-19T13:18:56;94910.38;;;5.07;100.00
20620;BME280;10469;42.720;23.252;2023-11-19T13:21:22;94902.81;;;5.17;100.00